Daily Summary for November 23, 2020 Units:  Both    English   Metric
Daily Weekly Monthly Yearly
  High: Low: Average:
Temperature: 73 °F /  22.8 °C 57 °F /  13.9 °C 63.5 °F /  17.5 °C
Dew Point: 63.1 °F /  17.3 °C 53.2 °F /  11.8 °C 59.9 °F /  15.5 °C
Humidity: 96% 62% 88%
Wind Speed: 13.2mph /  21.2km/h - 4.1mph /  6.6km/h
Wind Gust: 35mph /  56.3km/h - -
Wind- - SW
Pressure: 29.9 in /  1012.2 hPa 29.6 in /  1002.7 hPa -
Precipitation: 1.26 in /  32.0 mm    
 
 
Tabular Data for November 23, 2020
Time Temperature Dew Point Pressure Wind Wind Speed Wind Gust Humidity Rainfall Rate (Hourly) solar
00:04 64.2 °F /  17.9 °C 61 °F /  16.1 °C 29.8in /  1010.0hPa SE 2.9mph /  4.6km/h 9mph /  14.5km/h 89.5% 0in /  0.0mm 0 W/m2
00:09 64 °F /  17.8 °C 61.2 °F /  16.2 °C 29.8in /  1009.9hPa SE 2.8mph /  4.5km/h 6mph /  9.7km/h 90% 0in /  0.0mm 0 W/m2
00:14 64.2 °F /  17.9 °C 61.2 °F /  16.2 °C 29.8in /  1009.9hPa SSE 2mph /  3.2km/h 9mph /  14.5km/h 90% 0in /  0.0mm 0 W/m2
00:19 64 °F /  17.8 °C 61 °F /  16.1 °C 29.8in /  1009.9hPa SSW 3.2mph /  5.1km/h 12mph /  19.3km/h 90% 0in /  0.0mm 0 W/m2
00:24 63.9 °F /  17.7 °C 60.8 °F /  16 °C 29.8in /  1009.9hPa SSW 4.8mph /  7.7km/h 12mph /  19.3km/h 90% 0in /  0.0mm 0 W/m2
00:29 63.7 °F /  17.6 °C 60.8 °F /  16 °C 29.8in /  1010.0hPa SSW 4.6mph /  7.4km/h 12mph /  19.3km/h 90.2% 0.01in /  0.2mm 0 W/m2
00:34 63.7 °F /  17.6 °C 61 °F /  16.1 °C 29.8in /  1010.4hPa SSW 3.6mph /  5.8km/h 11mph /  17.7km/h 91% 0.02in /  0.5mm 0 W/m2
00:39 63.5 °F /  17.5 °C 60.8 °F /  16 °C 29.9in /  1011.4hPa SW 3.2mph /  5.1km/h 19mph /  30.6km/h 91% 0.02in /  0.5mm 0 W/m2
00:44 63.5 °F /  17.5 °C 60.8 °F /  16 °C 29.9in /  1011.9hPa WSW 7mph /  11.3km/h 21mph /  33.8km/h 91% 0.06in /  1.5mm 0 W/m2
00:49 63.3 °F /  17.4 °C 60.6 °F /  15.9 °C 29.9in /  1012.0hPa WSW 10.6mph /  17.1km/h 21mph /  33.8km/h 91.1% 0.21in /  5.3mm 0 W/m2
00:54 63.1 °F /  17.3 °C 60.8 °F /  16 °C 29.9in /  1012.1hPa WSW 10mph /  16.1km/h 21mph /  33.8km/h 92% 0.32in /  8.1mm 0 W/m2
00:59 63 °F /  17.2 °C 60.4 °F /  15.8 °C 29.9in /  1012.1hPa WSW 8.2mph /  13.2km/h 18mph /  29km/h 92% 0.42in /  10.7mm 0 W/m2
01:04 62.8 °F /  17.1 °C 60.3 °F /  15.7 °C 29.9in /  1012.2hPa WSW 7mph /  11.3km/h 18mph /  29km/h 92% 0.5in /  12.7mm 0 W/m2
01:09 62.6 °F /  17 °C 60.3 °F /  15.7 °C 29.9in /  1011.9hPa WSW 5mph /  8km/h 12mph /  19.3km/h 92.2% 0.54in /  13.7mm 0 W/m2
01:14 62.4 °F /  16.9 °C 60.4 °F /  15.8 °C 29.9in /  1011.1hPa SW 2.8mph /  4.5km/h 12mph /  19.3km/h 93% 0.56in /  14.2mm 0 W/m2
01:19 62.4 °F /  16.9 °C 60.3 °F /  15.7 °C 29.9in /  1011.2hPa SSW 1.2mph /  1.9km/h 5mph /  8km/h 93% 0.58in /  14.7mm 0 W/m2
01:24 62.2 °F /  16.8 °C 60.3 °F /  15.7 °C 29.9in /  1011.1hPa South 1.6mph /  2.6km/h 4mph /  6.4km/h 93% 0.59in /  15.0mm 0 W/m2
01:29 62.4 °F /  16.9 °C 60.3 °F /  15.7 °C 29.9in /  1011.0hPa SSE 2mph /  3.2km/h 4mph /  6.4km/h 93% 0.6in /  15.2mm 0 W/m2
01:34 62.4 °F /  16.9 °C 60.3 °F /  15.7 °C 29.9in /  1010.9hPa SSE 1.6mph /  2.6km/h 4mph /  6.4km/h 93% 0.61in /  15.5mm 0 W/m2
01:39 62.4 °F /  16.9 °C 60.4 °F /  15.8 °C 29.8in /  1010.7hPa SE 1mph /  1.6km/h 3mph /  4.8km/h 93.6% 0.62in /  15.8mm 0 W/m2
01:44 62.2 °F /  16.8 °C 60.6 °F /  15.9 °C 29.8in /  1010.6hPa ESE 1mph /  1.6km/h 3mph /  4.8km/h 94% 0.63in /  16.0mm 0 W/m2
01:49 62.2 °F /  16.8 °C 60.4 °F /  15.8 °C 29.8in /  1010.5hPa ESE 1mph /  1.6km/h 3mph /  4.8km/h 94% 0.58in /  14.7mm 0 W/m2
01:54 62.2 °F /  16.8 °C 60.4 °F /  15.8 °C 29.8in /  1010.5hPa ESE 1.6mph /  2.6km/h 3mph /  4.8km/h 94% 0.45in /  11.4mm 0 W/m2
01:59 62.2 °F /  16.8 °C 60.6 °F /  15.9 °C 29.8in /  1010.5hPa ESE 1mph /  1.6km/h 3mph /  4.8km/h 94% 0.31in /  7.9mm 0 W/m2
02:04 62.2 °F /  16.8 °C 60.4 °F /  15.8 °C 29.8in /  1010.6hPa East 1mph /  1.6km/h 3mph /  4.8km/h 94% 0.26in /  6.6mm 0 W/m2
02:09 62.2 °F /  16.8 °C 60.6 °F /  15.9 °C 29.8in /  1010.7hPa East 1.6mph /  2.6km/h 3mph /  4.8km/h 94% 0.17in /  4.3mm 0 W/m2
02:14 62.4 °F /  16.9 °C 60.6 °F /  15.9 °C 29.8in /  1010.7hPa ENE 2mph /  3.2km/h 3mph /  4.8km/h 94% 0.15in /  3.8mm 0 W/m2
02:19 62.4 °F /  16.9 °C 60.6 °F /  15.9 °C 29.8in /  1010.7hPa NE 2mph /  3.2km/h 3mph /  4.8km/h 94% 0.16in /  4.1mm 0 W/m2
02:24 62.4 °F /  16.9 °C 60.6 °F /  15.9 °C 29.8in /  1010.4hPa NE 2mph /  3.2km/h 3mph /  4.8km/h 94% 0.18in /  4.6mm 0 W/m2
02:29 62.4 °F /  16.9 °C 60.6 °F /  15.9 °C 29.8in /  1010.5hPa NE 2mph /  3.2km/h 3mph /  4.8km/h 94% 0.19in /  4.8mm 0 W/m2
02:34 62.4 °F /  16.9 °C 60.6 °F /  15.9 °C 29.8in /  1010.5hPa NE 1mph /  1.6km/h 3mph /  4.8km/h 94% 0.2in /  5.1mm 0 W/m2
02:39 62.4 °F /  16.9 °C 60.8 °F /  16 °C 29.8in /  1010.3hPa NNE 1mph /  1.6km/h 3mph /  4.8km/h 94.4% 0.2in /  5.1mm 0 W/m2
02:44 62.4 °F /  16.9 °C 61 °F /  16.1 °C 29.8in /  1009.9hPa NNE 1mph /  1.6km/h 3mph /  4.8km/h 95% 0.2in /  5.1mm 0 W/m2
02:49 62.4 °F /  16.9 °C 61 °F /  16.1 °C 29.8in /  1009.8hPa NE 1.4mph /  2.3km/h 5mph /  8km/h 94.9% 0.23in /  5.8mm 0 W/m2
02:54 62.4 °F /  16.9 °C 60.8 °F /  16 °C 29.8in /  1009.6hPa NE 2mph /  3.2km/h 5mph /  8km/h 94.9% 0.24in /  6.1mm 0 W/m2
02:59 62.4 °F /  16.9 °C 61 °F /  16.1 °C 29.8in /  1009.0hPa ENE 2mph /  3.2km/h 6mph /  9.7km/h 95% 0.25in /  6.3mm 0 W/m2
03:04 62.4 °F /  16.9 °C 61 °F /  16.1 °C 29.8in /  1008.8hPa East 2mph /  3.2km/h 6mph /  9.7km/h 95% 0.28in /  7.1mm 0 W/m2
03:09 62.4 °F /  16.9 °C 61 °F /  16.1 °C 29.8in /  1008.8hPa East 2mph /  3.2km/h 6mph /  9.7km/h 95% 0.29in /  7.4mm 0 W/m2
03:14 62.4 °F /  16.9 °C 61 °F /  16.1 °C 29.8in /  1008.4hPa East 2mph /  3.2km/h 6mph /  9.7km/h 95% 0.29in /  7.4mm 0 W/m2
03:19 62.4 °F /  16.9 °C 60.8 °F /  16 °C 29.8in /  1008.3hPa East 2mph /  3.2km/h 6mph /  9.7km/h 95% 0.28in /  7.1mm 0 W/m2
03:24 62.4 °F /  16.9 °C 61 °F /  16.1 °C 29.8in /  1008.3hPa East 1mph /  1.6km/h 6mph /  9.7km/h 95% 0.25in /  6.3mm 0 W/m2
03:29 62.4 °F /  16.9 °C 61 °F /  16.1 °C 29.8in /  1008.2hPa ESE 1mph /  1.6km/h 3mph /  4.8km/h 95% 0.21in /  5.3mm 0 W/m2
03:34 62.4 °F /  16.9 °C 61 °F /  16.1 °C 29.8in /  1008.2hPa ESE 1mph /  1.6km/h 3mph /  4.8km/h 95% 0.2in /  5.1mm 0 W/m2
03:39 62.4 °F /  16.9 °C 60.8 °F /  16 °C 29.8in /  1008.3hPa East 1mph /  1.6km/h 4mph /  6.4km/h 95% 0.17in /  4.3mm 0 W/m2
03:44 62.2 °F /  16.8 °C 60.8 °F /  16 °C 29.8in /  1008.3hPa NNE 1.8mph /  2.9km/h 4mph /  6.4km/h 95% 0.14in /  3.6mm 0 W/m2
03:49 62.2 °F /  16.8 °C 60.8 °F /  16 °C 29.8in /  1008.3hPa North 2.8mph /  4.5km/h 7mph /  11.3km/h 95% 0.12in /  3.0mm 0 W/m2
03:54 62.2 °F /  16.8 °C 60.8 °F /  16 °C 29.8in /  1008.1hPa NNE 3.4mph /  5.5km/h 9mph /  14.5km/h 95% 0.09in /  2.3mm 0 W/m2
03:59 62.1 °F /  16.7 °C 60.6 °F /  15.9 °C 29.8in /  1008.1hPa NNE 4mph /  6.4km/h 9mph /  14.5km/h 95% 0.08in /  2.0mm 0 W/m2
04:04 61.9 °F /  16.6 °C 60.4 °F /  15.8 °C 29.8in /  1008.0hPa North 2.6mph /  4.2km/h 9mph /  14.5km/h 95% 0.06in /  1.5mm 0 W/m2
04:09 61.7 °F /  16.5 °C 60.3 °F /  15.7 °C 29.8in /  1008.0hPa WNW 2mph /  3.2km/h 4mph /  6.4km/h 95% 0.03in /  0.8mm 0 W/m2
04:14 61.7 °F /  16.5 °C 60.3 °F /  15.7 °C 29.8in /  1008.0hPa WNW 2mph /  3.2km/h 6mph /  9.7km/h 95% 0.02in /  0.5mm 0 W/m2
04:19 61.7 °F /  16.5 °C 60.3 °F /  15.7 °C 29.8in /  1007.9hPa WNW 2.2mph /  3.5km/h 6mph /  9.7km/h 95% 0.01in /  0.2mm 0 W/m2
04:24 61.7 °F /  16.5 °C 60.3 °F /  15.7 °C 29.8in /  1007.8hPa West 2mph /  3.2km/h 6mph /  9.7km/h 95% 0.01in /  0.2mm 0 W/m2
04:29 61.7 °F /  16.5 °C 60.4 °F /  15.8 °C 29.8in /  1007.7hPa West 2mph /  3.2km/h 4mph /  6.4km/h 95% 0.01in /  0.2mm 0 W/m2
04:34 61.9 °F /  16.6 °C 60.4 °F /  15.8 °C 29.8in /  1007.6hPa West 1mph /  1.6km/h 3mph /  4.8km/h 95% 0.01in /  0.2mm 0 W/m2
04:39 61.9 °F /  16.6 °C 60.4 °F /  15.8 °C 29.8in /  1007.6hPa WNW 1mph /  1.6km/h 3mph /  4.8km/h 95% 0in /  0.0mm 0 W/m2
04:44 61.7 °F /  16.5 °C 60.4 °F /  15.8 °C 29.8in /  1007.6hPa WNW 1.2mph /  1.9km/h 3mph /  4.8km/h 95% 0in /  0.0mm 0 W/m2
04:49 61.9 °F /  16.6 °C 60.4 °F /  15.8 °C 29.8in /  1007.6hPa WNW 1.8mph /  2.9km/h 4mph /  6.4km/h 95% 0in /  0.0mm 0 W/m2
04:54 61.9 °F /  16.6 °C 60.4 °F /  15.8 °C 29.8in /  1007.6hPa NW 2mph /  3.2km/h 4mph /  6.4km/h 95% 0in /  0.0mm 0 W/m2
04:59 61.7 °F /  16.5 °C 60.4 °F /  15.8 °C 29.8in /  1007.6hPa NW 2mph /  3.2km/h 4mph /  6.4km/h 95% 0in /  0.0mm 0 W/m2
05:04 61.7 °F /  16.5 °C 60.3 °F /  15.7 °C 29.8in /  1007.5hPa WNW 2mph /  3.2km/h 4mph /  6.4km/h 95% 0in /  0.0mm 0 W/m2
05:09 61.7 °F /  16.5 °C 60.3 °F /  15.7 °C 29.8in /  1007.5hPa WNW 2mph /  3.2km/h 4mph /  6.4km/h 95% 0in /  0.0mm 0 W/m2
05:14 61.7 °F /  16.5 °C 60.3 °F /  15.7 °C 29.8in /  1007.5hPa WNW 2mph /  3.2km/h 4mph /  6.4km/h 95% 0in /  0.0mm 0 W/m2
05:19 61.7 °F /  16.5 °C 60.3 °F /  15.7 °C 29.8in /  1007.5hPa WNW 2mph /  3.2km/h 4mph /  6.4km/h 95% 0.01in /  0.2mm 0 W/m2
05:24 61.7 °F /  16.5 °C 60.3 °F /  15.7 °C 29.8in /  1007.5hPa WNW 1.2mph /  1.9km/h 4mph /  6.4km/h 95% 0.01in /  0.2mm 0 W/m2
05:29 61.9 °F /  16.6 °C 60.4 °F /  15.8 °C 29.8in /  1007.5hPa WNW 1.4mph /  2.3km/h 4mph /  6.4km/h 95.3% 0.01in /  0.2mm 0 W/m2
05:34 61.9 °F /  16.6 °C 60.6 °F /  15.9 °C 29.7in /  1007.3hPa WNW 1mph /  1.6km/h 4mph /  6.4km/h 95.8% 0.01in /  0.2mm 0 W/m2
05:39 61.9 °F /  16.6 °C 60.4 °F /  15.8 °C 29.8in /  1007.4hPa NW 1.4mph /  2.3km/h 4mph /  6.4km/h 95.2% 0.01in /  0.2mm 0 W/m2
05:44 61.9 °F /  16.6 °C 60.4 °F /  15.8 °C 29.8in /  1007.5hPa NW 2mph /  3.2km/h 4mph /  6.4km/h 95% 0.01in /  0.2mm 0 W/m2
05:49 61.9 °F /  16.6 °C 60.6 °F /  15.9 °C 29.8in /  1007.4hPa NW 2mph /  3.2km/h 4mph /  6.4km/h 95.7% 0.01in /  0.2mm 0 W/m2
05:54 61.9 °F /  16.6 °C 60.6 °F /  15.9 °C 29.7in /  1007.3hPa NW 2mph /  3.2km/h 4mph /  6.4km/h 95.8% 0.01in /  0.2mm 0 W/m2
05:59 61.9 °F /  16.6 °C 60.6 °F /  15.9 °C 29.8in /  1007.4hPa NW 2mph /  3.2km/h 4mph /  6.4km/h 96% 0.01in /  0.2mm 7 W/m2
06:04 61.9 °F /  16.6 °C 60.6 °F /  15.9 °C 29.8in /  1007.4hPa WNW 2mph /  3.2km/h 4mph /  6.4km/h 96% 0.01in /  0.2mm 11 W/m2
06:09 61.9 °F /  16.6 °C 60.6 °F /  15.9 °C 29.7in /  1007.2hPa NW 1.8mph /  2.9km/h 4mph /  6.4km/h 96% 0.01in /  0.2mm 14 W/m2
06:14 61.9 °F /  16.6 °C 60.8 °F /  16 °C 29.8in /  1007.4hPa NW 1mph /  1.6km/h 3mph /  4.8km/h 96% 0.01in /  0.2mm 18 W/m2
06:19 61.9 °F /  16.6 °C 60.6 °F /  15.9 °C 29.8in /  1007.4hPa NW 1.6mph /  2.6km/h 4mph /  6.4km/h 95.6% 0.01in /  0.2mm 25 W/m2
06:24 62.1 °F /  16.7 °C 60.8 °F /  16 °C 29.7in /  1007.3hPa NW 2mph /  3.2km/h 4mph /  6.4km/h 95.9% 0in /  0.0mm 28 W/m2
06:29 62.1 °F /  16.7 °C 60.8 °F /  16 °C 29.7in /  1007.3hPa NW 2mph /  3.2km/h 4mph /  6.4km/h 96% 0in /  0.0mm 30 W/m2
06:34 62.1 °F /  16.7 °C 61 °F /  16.1 °C 29.7in /  1007.3hPa NW 2mph /  3.2km/h 4mph /  6.4km/h 96% 0in /  0.0mm 33 W/m2
06:39 62.1 °F /  16.7 °C 60.6 °F /  15.9 °C 29.7in /  1007.2hPa WNW 2mph /  3.2km/h 4mph /  6.4km/h 95.2% 0in /  0.0mm 37 W/m2
06:44 62.1 °F /  16.7 °C 60.8 °F /  16 °C 29.7in /  1007.2hPa WNW 2mph /  3.2km/h 4mph /  6.4km/h 95.6% 0in /  0.0mm 44 W/m2
06:49 62.1 °F /  16.7 °C 61 °F /  16.1 °C 29.7in /  1007.3hPa WNW 2mph /  3.2km/h 4mph /  6.4km/h 96% 0in /  0.0mm 42 W/m2
06:54 62.2 °F /  16.8 °C 61 °F /  16.1 °C 29.8in /  1007.4hPa WNW 2mph /  3.2km/h 3mph /  4.8km/h 96% 0in /  0.0mm 44 W/m2
06:59 62.2 °F /  16.8 °C 61.2 °F /  16.2 °C 29.8in /  1007.6hPa WNW 2mph /  3.2km/h 4mph /  6.4km/h 96% 0in /  0.0mm 49 W/m2
07:04 62.4 °F /  16.9 °C 61.2 °F /  16.2 °C 29.8in /  1007.5hPa NW 2mph /  3.2km/h 4mph /  6.4km/h 96% 0in /  0.0mm 70 W/m2
07:09 62.4 °F /  16.9 °C 61.3 °F /  16.3 °C 29.8in /  1007.5hPa NNW 2.4mph /  3.9km/h 5mph /  8km/h 96% 0in /  0.0mm 83 W/m2
07:14 62.6 °F /  17 °C 61.3 °F /  16.3 °C 29.8in /  1007.5hPa North 3mph /  4.8km/h 6mph /  9.7km/h 96% 0in /  0.0mm 88 W/m2
07:19 62.4 °F /  16.9 °C 61.3 °F /  16.3 °C 29.8in /  1007.6hPa North 3.6mph /  5.8km/h 6mph /  9.7km/h 96% 0in /  0.0mm 91 W/m2
07:24 62.6 °F /  17 °C 61.3 °F /  16.3 °C 29.8in /  1007.6hPa NNW 3.6mph /  5.8km/h 6mph /  9.7km/h 96% 0in /  0.0mm 100 W/m2
07:29 62.8 °F /  17.1 °C 61.5 °F /  16.4 °C 29.8in /  1007.7hPa NNW 3mph /  4.8km/h 6mph /  9.7km/h 96% 0in /  0.0mm 90 W/m2
07:34 62.8 °F /  17.1 °C 61.2 °F /  16.2 °C 29.8in /  1007.9hPa NW 3mph /  4.8km/h 5mph /  8km/h 95% 0in /  0.0mm 63 W/m2
07:39 62.8 °F /  17.1 °C 61.3 °F /  16.3 °C 29.8in /  1008.0hPa NW 2.4mph /  3.9km/h 5mph /  8km/h 95% 0in /  0.0mm 47 W/m2
07:44 62.8 °F /  17.1 °C 61.5 °F /  16.4 °C 29.8in /  1008.1hPa NW 2mph /  3.2km/h 7mph /  11.3km/h 95.3% 0in /  0.0mm 44 W/m2
07:49 62.8 °F /  17.1 °C 61.3 °F /  16.3 °C 29.8in /  1008.2hPa NW 2.8mph /  4.5km/h 7mph /  11.3km/h 95% 0in /  0.0mm 37 W/m2
07:54 62.8 °F /  17.1 °C 61.3 °F /  16.3 °C 29.8in /  1008.2hPa WNW 2.6mph /  4.2km/h 7mph /  11.3km/h 95% 0.01in /  0.2mm 72 W/m2
07:59 63 °F /  17.2 °C 61.5 °F /  16.4 °C 29.8in /  1008.1hPa WNW 2mph /  3.2km/h 6mph /  9.7km/h 95.2% 0.01in /  0.2mm 90 W/m2
08:04 63 °F /  17.2 °C 61.7 °F /  16.5 °C 29.8in /  1007.9hPa NW 2mph /  3.2km/h 6mph /  9.7km/h 95.8% 0.01in /  0.2mm 109 W/m2
08:09 63.3 °F /  17.4 °C 62.1 °F /  16.7 °C 29.8in /  1007.6hPa NNW 2mph /  3.2km/h 8mph /  12.9km/h 96% 0.02in /  0.5mm 120 W/m2
08:14 63.3 °F /  17.4 °C 62.1 °F /  16.7 °C 29.7in /  1007.1hPa North 3.2mph /  5.1km/h 10mph /  16.1km/h 95.5% 0.02in /  0.5mm 148 W/m2
08:19 63.3 °F /  17.4 °C 61.9 °F /  16.6 °C 29.7in /  1007.1hPa NNE 4.4mph /  7.1km/h 10mph /  16.1km/h 95% 0.02in /  0.5mm 148 W/m2
08:24 63.3 °F /  17.4 °C 61.9 °F /  16.6 °C 29.7in /  1007.0hPa North 5mph /  8km/h 10mph /  16.1km/h 95% 0.02in /  0.5mm 141 W/m2
08:29 63.3 °F /  17.4 °C 61.9 °F /  16.6 °C 29.7in /  1006.5hPa NNE 6mph /  9.7km/h 13mph /  20.9km/h 95% 0.02in /  0.5mm 127 W/m2
08:34 63.3 °F /  17.4 °C 61.9 °F /  16.6 °C 29.7in /  1007.1hPa North 7mph /  11.3km/h 18mph /  29km/h 95% 0.02in /  0.5mm 162 W/m2
08:39 63.3 °F /  17.4 °C 61.9 °F /  16.6 °C 29.7in /  1007.1hPa NNW 7mph /  11.3km/h 18mph /  29km/h 95% 0.02in /  0.5mm 185 W/m2
08:44 63.5 °F /  17.5 °C 61.9 °F /  16.6 °C 29.7in /  1007.0hPa NNW 7mph /  11.3km/h 18mph /  29km/h 95% 0.02in /  0.5mm 176 W/m2
08:49 63.5 °F /  17.5 °C 61.9 °F /  16.6 °C 29.7in /  1006.8hPa NNW 7.8mph /  12.6km/h 14mph /  22.5km/h 95% 0.02in /  0.5mm 128 W/m2
08:54 63.5 °F /  17.5 °C 62.1 °F /  16.7 °C 29.7in /  1006.6hPa NNW 7.2mph /  11.6km/h 14mph /  22.5km/h 95% 0.01in /  0.2mm 193 W/m2
08:59 63.5 °F /  17.5 °C 62.1 °F /  16.7 °C 29.7in /  1006.5hPa NNW 6.2mph /  10km/h 13mph /  20.9km/h 95% 0.01in /  0.2mm 285 W/m2
09:04 63.9 °F /  17.7 °C 62.2 °F /  16.8 °C 29.7in /  1006.5hPa NNW 6.6mph /  10.6km/h 13mph /  20.9km/h 95% 0.01in /  0.2mm 285 W/m2
09:09 64 °F /  17.8 °C 62.4 °F /  16.9 °C 29.7in /  1006.7hPa NNW 7.2mph /  11.6km/h 15mph /  24.1km/h 95% 0.01in /  0.2mm 292 W/m2
09:14 64 °F /  17.8 °C 62.6 °F /  17 °C 29.7in /  1006.7hPa NW 8.6mph /  13.8km/h 18mph /  29km/h 95% 0in /  0.0mm 339 W/m2
09:19 64.4 °F /  18 °C 63 °F /  17.2 °C 29.7in /  1006.5hPa NW 9.2mph /  14.8km/h 19mph /  30.6km/h 95% 0in /  0.0mm 584 W/m2
09:24 64.6 °F /  18.1 °C 62.8 °F /  17.1 °C 29.7in /  1006.5hPa NW 10mph /  16.1km/h 21mph /  33.8km/h 94% 0in /  0.0mm 485 W/m2
09:29 64.9 °F /  18.3 °C 63.1 °F /  17.3 °C 29.7in /  1006.4hPa NW 10.6mph /  17.1km/h 21mph /  33.8km/h 93.9% 0in /  0.0mm 366 W/m2
09:34 65.1 °F /  18.4 °C 63 °F /  17.2 °C 29.7in /  1006.4hPa NW 10.4mph /  16.7km/h 21mph /  33.8km/h 93% 0in /  0.0mm 376 W/m2
09:39 65.3 °F /  18.5 °C 63.1 °F /  17.3 °C 29.7in /  1006.6hPa NW 8.4mph /  13.5km/h 21mph /  33.8km/h 93.3% 0in /  0.0mm 345 W/m2
09:44 65.1 °F /  18.4 °C 63.1 °F /  17.3 °C 29.7in /  1006.5hPa NNW 7.4mph /  11.9km/h 16mph /  25.7km/h 93% 0in /  0.0mm 290 W/m2
09:49 65.1 °F /  18.4 °C 62.8 °F /  17.1 °C 29.7in /  1006.4hPa NW 7.6mph /  12.2km/h 16mph /  25.7km/h 92.5% 0in /  0.0mm 262 W/m2
09:54 65.3 °F /  18.5 °C 63 °F /  17.2 °C 29.7in /  1006.0hPa NNW 7.6mph /  12.2km/h 15mph /  24.1km/h 92.3% 0in /  0.0mm 230 W/m2
09:59 65.3 °F /  18.5 °C 63 °F /  17.2 °C 29.7in /  1006.2hPa NNW 6.8mph /  10.9km/h 13mph /  20.9km/h 92% 0in /  0.0mm 197 W/m2
10:04 65.3 °F /  18.5 °C 63 °F /  17.2 °C 29.7in /  1006.3hPa NNW 6mph /  9.7km/h 12mph /  19.3km/h 92% 0in /  0.0mm 158 W/m2
10:09 65.5 °F /  18.6 °C 63 °F /  17.2 °C 29.7in /  1006.0hPa NNW 5.4mph /  8.7km/h 12mph /  19.3km/h 92% 0in /  0.0mm 193 W/m2
10:14 65.3 °F /  18.5 °C 63 °F /  17.2 °C 29.7in /  1005.8hPa North 5mph /  8km/h 11mph /  17.7km/h 92% 0in /  0.0mm 141 W/m2
10:19 65.1 °F /  18.4 °C 62.8 °F /  17.1 °C 29.7in /  1005.9hPa NW 6mph /  9.7km/h 11mph /  17.7km/h 92% 0in /  0.0mm 174 W/m2
10:24 65.1 °F /  18.4 °C 62.8 °F /  17.1 °C 29.7in /  1006.0hPa WNW 6mph /  9.7km/h 11mph /  17.7km/h 92% 0in /  0.0mm 179 W/m2
10:29 65.3 °F /  18.5 °C 62.8 °F /  17.1 °C 29.7in /  1006.0hPa NW 6mph /  9.7km/h 14mph /  22.5km/h 91.8% 0in /  0.0mm 318 W/m2
10:34 65.7 °F /  18.7 °C 63 °F /  17.2 °C 29.7in /  1005.9hPa NW 6mph /  9.7km/h 14mph /  22.5km/h 91% 0in /  0.0mm 318 W/m2
10:39 65.8 °F /  18.8 °C 62.8 °F /  17.1 °C 29.7in /  1005.9hPa NW 6mph /  9.7km/h 12mph /  19.3km/h 89.4% 0in /  0.0mm 248 W/m2
10:44 66 °F /  18.9 °C 62.6 °F /  17 °C 29.7in /  1005.6hPa NW 6mph /  9.7km/h 12mph /  19.3km/h 88.8% 0in /  0.0mm 246 W/m2
10:49 66 °F /  18.9 °C 62.4 °F /  16.9 °C 29.7in /  1005.5hPa NNW 6mph /  9.7km/h 13mph /  20.9km/h 88.1% 0in /  0.0mm 253 W/m2
10:54 66 °F /  18.9 °C 62.6 °F /  17 °C 29.7in /  1005.5hPa NNW 7mph /  11.3km/h 14mph /  22.5km/h 88.4% 0in /  0.0mm 271 W/m2
10:59 66 °F /  18.9 °C 62.8 °F /  17.1 °C 29.7in /  1005.4hPa NNW 8mph /  12.9km/h 14mph /  22.5km/h 89% 0in /  0.0mm 322 W/m2
11:04 66.2 °F /  19 °C 62.8 °F /  17.1 °C 29.7in /  1005.2hPa NNW 8mph /  12.9km/h 15mph /  24.1km/h 88.7% 0in /  0.0mm 257 W/m2
11:09 66.4 °F /  19.1 °C 62.8 °F /  17.1 °C 29.7in /  1005.3hPa NNW 7.2mph /  11.6km/h 15mph /  24.1km/h 88.2% 0in /  0.0mm 320 W/m2
11:14 66.2 °F /  19 °C 62.4 °F /  16.9 °C 29.7in /  1005.5hPa NW 8.4mph /  13.5km/h 20mph /  32.2km/h 87.4% 0in /  0.0mm 248 W/m2
11:19 66.4 °F /  19.1 °C 62.2 °F /  16.8 °C 29.7in /  1005.5hPa NW 9.8mph /  15.7km/h 20mph /  32.2km/h 87.1% 0in /  0.0mm 501 W/m2
11:24 66.7 °F /  19.3 °C 62.8 °F /  17.1 °C 29.7in /  1005.2hPa NW 10mph /  16.1km/h 20mph /  32.2km/h 87.1% 0in /  0.0mm 501 W/m2
11:29 66.7 °F /  19.3 °C 62.4 °F /  16.9 °C 29.7in /  1005.3hPa NW 10mph /  16.1km/h 19mph /  30.6km/h 86% 0in /  0.0mm 353 W/m2
11:34 66.2 °F /  19 °C 62.2 °F /  16.8 °C 29.7in /  1005.3hPa NW 10.6mph /  17.1km/h 19mph /  30.6km/h 87.2% 0in /  0.0mm 422 W/m2
11:39 66 °F /  18.9 °C 62.4 °F /  16.9 °C 29.7in /  1005.0hPa NW 10.4mph /  16.7km/h 18mph /  29km/h 88.5% 0in /  0.0mm 522 W/m2
11:44 66.6 °F /  19.2 °C 63 °F /  17.2 °C 29.7in /  1004.8hPa NW 9.2mph /  14.8km/h 17mph /  27.4km/h 88.4% 0in /  0.0mm 571 W/m2
11:49 66.9 °F /  19.4 °C 63.1 °F /  17.3 °C 29.7in /  1004.7hPa NNW 8mph /  12.9km/h 19mph /  30.6km/h 87.3% 0in /  0.0mm 343 W/m2
11:54 66.9 °F /  19.4 °C 62.6 °F /  17 °C 29.7in /  1004.9hPa NNW 8.2mph /  13.2km/h 19mph /  30.6km/h 86% 0in /  0.0mm 142 W/m2
11:59 66.9 °F /  19.4 °C 62.2 °F /  16.8 °C 29.7in /  1004.9hPa NW 9.4mph /  15.1km/h 21mph /  33.8km/h 85.1% 0in /  0.0mm 209 W/m2
12:04 66.9 °F /  19.4 °C 62.1 °F /  16.7 °C 29.7in /  1004.8hPa NW 10.4mph /  16.7km/h 21mph /  33.8km/h 84.3% 0in /  0.0mm 279 W/m2
12:09 67.3 °F /  19.6 °C 61.9 °F /  16.6 °C 29.7in /  1004.8hPa NW 11.6mph /  18.6km/h 21mph /  33.8km/h 83.2% 0in /  0.0mm 355 W/m2
12:14 67.5 °F /  19.7 °C 61.9 °F /  16.6 °C 29.7in /  1004.7hPa NW 11.8mph /  19km/h 25mph /  40.2km/h 82.4% 0.01in /  0.2mm 316 W/m2
12:19 67.8 °F /  19.9 °C 62.2 °F /  16.8 °C 29.7in /  1004.4hPa NW 10.4mph /  16.8km/h 25mph /  40.2km/h 82.2% 0.01in /  0.2mm 371 W/m2
12:24 68.2 °F /  20.1 °C 62.2 °F /  16.8 °C 29.7in /  1004.4hPa NW 8.4mph /  13.5km/h 25mph /  40.2km/h 81.3% 0.01in /  0.2mm 515 W/m2
12:29 68.4 °F /  20.2 °C 61.3 °F /  16.3 °C 29.7in /  1004.2hPa NW 9.8mph /  15.7km/h 24mph /  38.6km/h 78.5% 0.01in /  0.2mm 563 W/m2
12:34 68.5 °F /  20.3 °C 60.8 °F /  16 °C 29.7in /  1004.1hPa NW 12.4mph /  19.9km/h 24mph /  38.6km/h 76.5% 0.01in /  0.2mm 517 W/m2
12:39 68.4 °F /  20.2 °C 61 °F /  16.1 °C 29.7in /  1004.2hPa NW 12mph /  19.3km/h 24mph /  38.6km/h 77% 0.01in /  0.2mm 250 W/m2
12:44 68.2 °F /  20.1 °C 60.6 °F /  15.9 °C 29.7in /  1004.2hPa NW 12.4mph /  19.9km/h 27mph /  43.5km/h 76.8% 0.01in /  0.2mm 269 W/m2
12:49 68 °F /  20 °C 60.4 °F /  15.8 °C 29.7in /  1004.1hPa NW 13.2mph /  21.2km/h 27mph /  43.5km/h 77% 0.01in /  0.2mm 135 W/m2
12:54 67.6 °F /  19.8 °C 60.6 °F /  15.9 °C 29.7in /  1004.3hPa NW 12.1mph /  19.4km/h 27mph /  43.5km/h 78.1% 0.01in /  0.2mm 98 W/m2
12:59 67.6 °F /  19.8 °C 60.6 °F /  15.9 °C 29.7in /  1004.6hPa NW 10mph /  16.1km/h 27mph /  43.5km/h 78.5% 0.01in /  0.2mm 102 W/m2
13:04 67.5 °F /  19.7 °C 60.8 °F /  16 °C 29.7in /  1004.9hPa NW 9.4mph /  15.1km/h 23mph /  37km/h 79% 0.01in /  0.2mm 90 W/m2
13:09 67.3 °F /  19.6 °C 59.2 °F /  15.1 °C 29.7in /  1006.5hPa WNW 10.4mph /  16.7km/h 35mph /  56.3km/h 75.5% 0.01in /  0.2mm 40 W/m2
13:14 64.4 °F /  18 °C 54.9 °F /  12.7 °C 29.7in /  1006.7hPa WSW 12.4mph /  19.9km/h 35mph /  56.3km/h 71.1% 0.05in /  1.3mm 19 W/m2
13:19 60.8 °F /  16 °C 54 °F /  12.2 °C 29.7in /  1006.5hPa SW 11.6mph /  18.7km/h 35mph /  56.3km/h 78.4% 0.14in /  3.6mm 44 W/m2
13:24 58.1 °F /  14.5 °C 53.2 °F /  11.8 °C 29.7in /  1006.2hPa WSW 8.1mph /  13km/h 26mph /  41.8km/h 84% 0.2in /  5.1mm 100 W/m2
13:29 57 °F /  13.9 °C 53.4 °F /  11.9 °C 29.7in /  1005.9hPa WSW 5.8mph /  9.4km/h 18mph /  29km/h 87.8% 0.2in /  5.1mm 160 W/m2
13:34 57.2 °F /  14 °C 54.3 °F /  12.4 °C 29.7in /  1005.2hPa WSW 4.2mph /  6.8km/h 14mph /  22.5km/h 90.3% 0.22in /  5.6mm 185 W/m2
13:39 57.6 °F /  14.2 °C 54.9 °F /  12.7 °C 29.7in /  1005.0hPa SW 2.9mph /  4.6km/h 9mph /  14.5km/h 90.8% 0.22in /  5.6mm 169 W/m2
13:44 57.7 °F /  14.3 °C 55.2 °F /  12.9 °C 29.7in /  1004.8hPa SSW 1.8mph /  2.9km/h 9mph /  14.5km/h 91.2% 0.23in /  5.8mm 128 W/m2
13:49 57.9 °F /  14.4 °C 55.2 °F /  12.9 °C 29.7in /  1004.8hPa South 1mph /  1.6km/h 5mph /  8km/h 90.8% 0.23in /  5.8mm 84 W/m2
13:54 57.9 °F /  14.4 °C 55.2 °F /  12.9 °C 29.7in /  1004.8hPa SSW 1mph /  1.6km/h 3mph /  4.8km/h 91% 0.23in /  5.8mm 127 W/m2
13:59 58.1 °F /  14.5 °C 55.6 °F /  13.1 °C 29.7in /  1004.5hPa South 1mph /  1.6km/h 4mph /  6.4km/h 91.3% 0.23in /  5.8mm 221 W/m2
14:04 58.1 °F /  14.5 °C 55.6 °F /  13.1 °C 29.7in /  1004.5hPa East 1mph /  1.6km/h 4mph /  6.4km/h 91.5% 0.23in /  5.8mm 230 W/m2
14:09 58.5 °F /  14.7 °C 56.1 °F /  13.4 °C 29.7in /  1004.1hPa NE 1.2mph /  1.9km/h 4mph /  6.4km/h 92% 0.23in /  5.8mm 195 W/m2
14:14 58.8 °F /  14.9 °C 56.5 °F /  13.6 °C 29.7in /  1004.1hPa NE 1.2mph /  1.9km/h 3mph /  4.8km/h 92.2% 0.23in /  5.8mm 199 W/m2
14:19 59 °F /  15 °C 56.7 °F /  13.7 °C 29.7in /  1004.2hPa NE 2mph /  3.2km/h 4mph /  6.4km/h 92% 0.17in /  4.3mm 144 W/m2
14:24 59 °F /  15 °C 56.7 °F /  13.7 °C 29.7in /  1004.2hPa NNE 2.4mph /  3.8km/h 10mph /  16.1km/h 91.8% 0.06in /  1.5mm 70 W/m2
14:29 59 °F /  15 °C 56.5 °F /  13.6 °C 29.7in /  1004.2hPa NNE 3.8mph /  6.1km/h 10mph /  16.1km/h 91.5% 0.02in /  0.5mm 77 W/m2
14:34 58.8 °F /  14.9 °C 56.3 °F /  13.5 °C 29.7in /  1004.2hPa NNE 4.6mph /  7.4km/h 12mph /  19.3km/h 91% 0.02in /  0.5mm 163 W/m2
14:39 59 °F /  15 °C 56.3 °F /  13.5 °C 29.7in /  1004.0hPa NNE 5.8mph /  9.3km/h 12mph /  19.3km/h 91% 0.01in /  0.2mm 311 W/m2
14:44 59.2 °F /  15.1 °C 56.7 °F /  13.7 °C 29.6in /  1003.8hPa NNE 6mph /  9.7km/h 12mph /  19.3km/h 91% 0.01in /  0.2mm 366 W/m2
14:49 59.7 °F /  15.4 °C 57 °F /  13.9 °C 29.6in /  1003.6hPa NNE 5.4mph /  8.7km/h 15mph /  24.1km/h 91% 0in /  0.0mm 399 W/m2
14:54 59.9 °F /  15.5 °C 57 °F /  13.9 °C 29.6in /  1003.5hPa NNE 7mph /  11.2km/h 15mph /  24.1km/h 90.3% 0in /  0.0mm 401 W/m2
14:59 60.1 °F /  15.6 °C 57.2 °F /  14 °C 29.6in /  1003.5hPa NNE 8mph /  12.9km/h 15mph /  24.1km/h 90.2% 0in /  0.0mm 911 W/m2
15:04 61.7 °F /  16.5 °C 59 °F /  15 °C 29.6in /  1003.4hPa NNE 6.5mph /  10.4km/h 12mph /  19.3km/h 90.8% 0in /  0.0mm 911 W/m2
15:09 62.6 °F /  17 °C 59 °F /  15 °C 29.6in /  1003.1hPa NNE 4.6mph /  7.4km/h 12mph /  19.3km/h 87.7% 0in /  0.0mm 693 W/m2
15:14 62.6 °F /  17 °C 58.5 °F /  14.7 °C 29.6in /  1003.2hPa NNE 4.4mph /  7.1km/h 10mph /  16.1km/h 86.3% 0in /  0.0mm 652 W/m2
15:19 62.6 °F /  17 °C 58.5 °F /  14.7 °C 29.6in /  1003.1hPa North 4mph /  6.5km/h 10mph /  16.1km/h 86.7% 0in /  0.0mm 540 W/m2
15:24 63.1 °F /  17.3 °C 58.8 °F /  14.9 °C 29.6in /  1003.2hPa North 4.2mph /  6.7km/h 11mph /  17.7km/h 86.2% 0in /  0.0mm 527 W/m2
15:29 63.1 °F /  17.3 °C 58.6 °F /  14.8 °C 29.6in /  1003.2hPa North 5.6mph /  9km/h 12mph /  19.3km/h 85.3% 0in /  0.0mm 466 W/m2
15:34 62.8 °F /  17.1 °C 58.6 °F /  14.8 °C 29.6in /  1003.2hPa North 6.8mph /  10.9km/h 12mph /  19.3km/h 86.2% 0in /  0.0mm 450 W/m2
15:39 62.8 °F /  17.1 °C 58.3 °F /  14.6 °C 29.6in /  1003.1hPa NNW 6.2mph /  10km/h 14mph /  22.5km/h 85.7% 0in /  0.0mm 468 W/m2
15:44 62.8 °F /  17.1 °C 58.6 °F /  14.8 °C 29.6in /  1003.1hPa North 6.8mph /  10.9km/h 14mph /  22.5km/h 86.2% 0in /  0.0mm 438 W/m2
15:49 62.4 °F /  16.9 °C 58.3 °F /  14.6 °C 29.6in /  1002.9hPa North 7.4mph /  11.9km/h 14mph /  22.5km/h 86.2% 0in /  0.0mm 443 W/m2
15:54 62.2 °F /  16.8 °C 58.3 °F /  14.6 °C 29.6in /  1002.7hPa NNW 7mph /  11.3km/h 14mph /  22.5km/h 87% 0in /  0.0mm 443 W/m2
15:59 62.2 °F /  16.8 °C 58.6 °F /  14.8 °C 29.6in /  1002.7hPa NW 7mph /  11.3km/h 14mph /  22.5km/h 87.6% 0in /  0.0mm 441 W/m2
16:04 62.8 °F /  17.1 °C 59.2 °F /  15.1 °C 29.6in /  1002.9hPa NW 6.4mph /  10.3km/h 14mph /  22.5km/h 87.5% 0in /  0.0mm 450 W/m2
16:09 63 °F /  17.2 °C 59.2 °F /  15.1 °C 29.6in /  1002.9hPa NNW 6.6mph /  10.6km/h 14mph /  22.5km/h 87.2% 0in /  0.0mm 471 W/m2
16:14 63.1 °F /  17.3 °C 59 °F /  15 °C 29.6in /  1002.8hPa NNW 7mph /  11.2km/h 15mph /  24.1km/h 86.7% 0in /  0.0mm 536 W/m2
16:19 63.5 °F /  17.5 °C 59.5 °F /  15.3 °C 29.6in /  1002.9hPa NNW 6.8mph /  10.9km/h 15mph /  24.1km/h 86.9% 0in /  0.0mm 905 W/m2
16:24 64.6 °F /  18.1 °C 59.9 °F /  15.5 °C 29.6in /  1003.0hPa NNW 7mph /  11.3km/h 15mph /  24.1km/h 84.5% 0in /  0.0mm 872 W/m2
16:29 65.5 °F /  18.6 °C 60.1 °F /  15.6 °C 29.6in /  1003.2hPa NNW 7.4mph /  11.9km/h 18mph /  29km/h 82.4% 0in /  0.0mm 689 W/m2
16:34 65.7 °F /  18.7 °C 60.1 °F /  15.6 °C 29.6in /  1003.2hPa NNW 8.9mph /  14.4km/h 18mph /  29km/h 81.8% 0in /  0.0mm 650 W/m2
16:39 66.4 °F /  19.1 °C 60.1 °F /  15.6 °C 29.6in /  1003.1hPa NNW 10.2mph /  16.4km/h 18mph /  29km/h 80.5% 0in /  0.0mm 624 W/m2
16:44 67.1 °F /  19.5 °C 60.8 °F /  16 °C 29.6in /  1003.1hPa North 9.4mph /  15.1km/h 18mph /  29km/h 80.2% 0in /  0.0mm 599 W/m2
16:49 66.9 °F /  19.4 °C 60.6 °F /  15.9 °C 29.6in /  1003.2hPa North 8.6mph /  13.9km/h 18mph /  29km/h 80% 0in /  0.0mm 570 W/m2
16:54 66.6 °F /  19.2 °C 59.9 °F /  15.5 °C 29.6in /  1003.2hPa NNW 8.6mph /  13.8km/h 17mph /  27.4km/h 79.4% 0in /  0.0mm 533 W/m2
16:59 66.2 °F /  19 °C 60.1 °F /  15.6 °C 29.6in /  1003.2hPa NW 9.2mph /  14.8km/h 19mph /  30.6km/h 80.3% 0in /  0.0mm 485 W/m2
17:04 66.2 °F /  19 °C 59.9 °F /  15.5 °C 29.6in /  1003.3hPa NW 10mph /  16.1km/h 19mph /  30.6km/h 80.4% 0in /  0.0mm 459 W/m2
17:09 66.7 °F /  19.3 °C 60.6 °F /  15.9 °C 29.6in /  1003.3hPa NW 10mph /  16.1km/h 19mph /  30.6km/h 80.8% 0in /  0.0mm 431 W/m2
17:14 67.5 °F /  19.7 °C 60.8 °F /  16 °C 29.6in /  1003.1hPa NW 9mph /  14.5km/h 18mph /  29km/h 79.5% 0in /  0.0mm 390 W/m2
17:19 67.8 °F /  19.9 °C 60.8 °F /  16 °C 29.6in /  1003.3hPa NW 8.8mph /  14.2km/h 17mph /  27.4km/h 78.2% 0in /  0.0mm 397 W/m2
17:24 67.6 °F /  19.8 °C 60.3 °F /  15.7 °C 29.6in /  1003.2hPa NW 9.2mph /  14.8km/h 17mph /  27.4km/h 77.2% 0in /  0.0mm 390 W/m2
17:29 68 °F /  20 °C 60.6 °F /  15.9 °C 29.6in /  1003.3hPa NW 9.6mph /  15.4km/h 17mph /  27.4km/h 77.1% 0in /  0.0mm 357 W/m2
17:34 67.8 °F /  19.9 °C 60.4 °F /  15.8 °C 29.6in /  1003.2hPa NW 9mph /  14.5km/h 17mph /  27.4km/h 77.3% 0in /  0.0mm 244 W/m2
17:39 67.5 °F /  19.7 °C 60.4 °F /  15.8 °C 29.6in /  1003.4hPa NW 9mph /  14.5km/h 17mph /  27.4km/h 78% 0in /  0.0mm 348 W/m2
17:44 68 °F /  20 °C 60.4 °F /  15.8 °C 29.6in /  1003.6hPa NNW 7.6mph /  12.2km/h 17mph /  27.4km/h 77.1% 0in /  0.0mm 352 W/m2
17:49 68.2 °F /  20.1 °C 60.3 °F /  15.7 °C 29.6in /  1003.6hPa NNW 5.8mph /  9.3km/h 14mph /  22.5km/h 75.7% 0in /  0.0mm 220 W/m2
17:54 68 °F /  20 °C 60.3 °F /  15.7 °C 29.6in /  1003.6hPa NNW 4.6mph /  7.4km/h 13mph /  20.9km/h 76.2% 0in /  0.0mm 244 W/m2
17:59 67.6 °F /  19.8 °C 60.1 °F /  15.6 °C 29.6in /  1003.6hPa NW 4.8mph /  7.7km/h 12mph /  19.3km/h 76.3% 0in /  0.0mm 244 W/m2
18:04 68 °F /  20 °C 59.7 °F /  15.4 °C 29.6in /  1003.9hPa NW 4.6mph /  7.4km/h 12mph /  19.3km/h 75.1% 0in /  0.0mm 239 W/m2
18:09 68.4 °F /  20.2 °C 59.9 °F /  15.5 °C 29.7in /  1004.0hPa NW 4mph /  6.4km/h 12mph /  19.3km/h 74.5% 0in /  0.0mm 404 W/m2
18:14 69.3 °F /  20.7 °C 60.4 °F /  15.8 °C 29.7in /  1004.0hPa NW 4mph /  6.4km/h 10mph /  16.1km/h 73.6% 0in /  0.0mm 353 W/m2
18:19 71.1 °F /  21.7 °C 60.4 °F /  15.8 °C 29.7in /  1004.3hPa NW 3.4mph /  5.5km/h 10mph /  16.1km/h 69% 0in /  0.0mm 279 W/m2
18:24 73 °F /  22.8 °C 59.2 °F /  15.1 °C 29.7in /  1004.3hPa NW 1.8mph /  2.9km/h 7mph /  11.3km/h 62% 0in /  0.0mm 230 W/m2
18:29 72.9 °F /  22.7 °C 60.3 °F /  15.7 °C 29.7in /  1004.4hPa SW 1mph /  1.6km/h 7mph /  11.3km/h 64.6% 0in /  0.0mm 174 W/m2
18:34 71.4 °F /  21.9 °C 60.4 °F /  15.8 °C 29.7in /  1004.4hPa ESE 1.8mph /  2.9km/h 7mph /  11.3km/h 68.4% 0in /  0.0mm 53 W/m2
18:39 70.2 °F /  21.2 °C 60.3 °F /  15.7 °C 29.7in /  1004.4hPa East 2.8mph /  4.5km/h 7mph /  11.3km/h 70.6% 0in /  0.0mm 51 W/m2
18:44 69.6 °F /  20.9 °C 60.6 °F /  15.9 °C 29.7in /  1004.6hPa East 2mph /  3.2km/h 7mph /  11.3km/h 73% 0in /  0.0mm 46 W/m2
18:49 69.3 °F /  20.7 °C 60.1 °F /  15.6 °C 29.7in /  1004.7hPa East 2mph /  3.2km/h 7mph /  11.3km/h 72.5% 0in /  0.0mm 49 W/m2
18:54 68.7 °F /  20.4 °C 60.1 °F /  15.6 °C 29.7in /  1004.8hPa East 2mph /  3.2km/h 7mph /  11.3km/h 73.9% 0in /  0.0mm 51 W/m2
18:59 68.2 °F /  20.1 °C 59.7 °F /  15.4 °C 29.7in /  1004.9hPa East 1.4mph /  2.2km/h 8mph /  12.9km/h 74.3% 0in /  0.0mm 51 W/m2
19:04 68 °F /  20 °C 59.5 °F /  15.3 °C 29.7in /  1004.8hPa East 1.2mph /  1.9km/h 8mph /  12.9km/h 74.3% 0in /  0.0mm 44 W/m2
19:09 67.5 °F /  19.7 °C 59.5 °F /  15.3 °C 29.7in /  1005.0hPa East 1.4mph /  2.3km/h 8mph /  12.9km/h 75.4% 0in /  0.0mm 33 W/m2
19:14 67.3 °F /  19.6 °C 59.5 °F /  15.3 °C 29.7in /  1005.1hPa East 1.4mph /  2.3km/h 4mph /  6.4km/h 76% 0in /  0.0mm 26 W/m2
19:19 67.3 °F /  19.6 °C 59.5 °F /  15.3 °C 29.7in /  1005.2hPa ESE 2mph /  3.2km/h 4mph /  6.4km/h 76% 0in /  0.0mm 26 W/m2
19:24 67.1 °F /  19.5 °C 59.5 °F /  15.3 °C 29.7in /  1005.3hPa SE 1.8mph /  2.9km/h 4mph /  6.4km/h 76.9% 0in /  0.0mm 26 W/m2
19:29 66.7 °F /  19.3 °C 59.5 °F /  15.3 °C 29.7in /  1005.4hPa ESE 1mph /  1.6km/h 6mph /  9.7km/h 77.7% 0in /  0.0mm 23 W/m2
19:34 66.4 °F /  19.1 °C 59.2 °F /  15.1 °C 29.7in /  1005.6hPa ENE 1.8mph /  2.9km/h 6mph /  9.7km/h 78% 0in /  0.0mm 21 W/m2
19:39 66 °F /  18.9 °C 59.5 °F /  15.3 °C 29.7in /  1005.7hPa NE 2.2mph /  3.5km/h 6mph /  9.7km/h 79.3% 0in /  0.0mm 16 W/m2
19:44 65.8 °F /  18.8 °C 59.5 °F /  15.3 °C 29.7in /  1005.7hPa NE 3mph /  4.8km/h 6mph /  9.7km/h 80% 0in /  0.0mm 11 W/m2
19:49 65.7 °F /  18.7 °C 59.5 °F /  15.3 °C 29.7in /  1005.9hPa NE 2mph /  3.2km/h 5mph /  8km/h 80.6% 0in /  0.0mm 7 W/m2
19:54 65.3 °F /  18.5 °C 59.4 °F /  15.2 °C 29.7in /  1006.0hPa NE 1.4mph /  2.3km/h 4mph /  6.4km/h 81% 0in /  0.0mm 0 W/m2
19:59 65.1 °F /  18.4 °C 59.4 °F /  15.2 °C 29.7in /  1006.2hPa NNE 1.4mph /  2.3km/h 9mph /  14.5km/h 81.4% 0in /  0.0mm 0 W/m2
20:04 64.9 °F /  18.3 °C 59.4 °F /  15.2 °C 29.7in /  1006.2hPa NNE 2.8mph /  4.5km/h 9mph /  14.5km/h 82% 0in /  0.0mm 0 W/m2
20:09 64.8 °F /  18.2 °C 59.2 °F /  15.1 °C 29.7in /  1006.3hPa NE 3.2mph /  5.1km/h 9mph /  14.5km/h 82% 0in /  0.0mm 0 W/m2
20:14 64.6 °F /  18.1 °C 59.2 °F /  15.1 °C 29.7in /  1006.5hPa NE 3mph /  4.8km/h 6mph /  9.7km/h 82.8% 0in /  0.0mm 0 W/m2
20:19 64.4 °F /  18 °C 59 °F /  15 °C 29.7in /  1006.6hPa NE 2.6mph /  4.2km/h 6mph /  9.7km/h 83% 0in /  0.0mm 0 W/m2
20:24 64.2 °F /  17.9 °C 59.4 °F /  15.2 °C 29.7in /  1006.7hPa NE 2mph /  3.2km/h 5mph /  8km/h 83.8% 0in /  0.0mm 0 W/m2
20:29 64.2 °F /  17.9 °C 59.2 °F /  15.1 °C 29.7in /  1006.8hPa NE 2mph /  3.2km/h 5mph /  8km/h 84% 0in /  0.0mm 0 W/m2
20:34 64 °F /  17.8 °C 59.4 °F /  15.2 °C 29.7in /  1006.8hPa NNE 1.8mph /  2.9km/h 4mph /  6.4km/h 84.3% 0in /  0.0mm 0 W/m2
20:39 64.2 °F /  17.9 °C 59.4 °F /  15.2 °C 29.7in /  1006.8hPa NNE 1mph /  1.6km/h 4mph /  6.4km/h 84.2% 0in /  0.0mm 0 W/m2
20:44 64 °F /  17.8 °C 59.2 °F /  15.1 °C 29.7in /  1006.8hPa NNE 0.2mph /  0.3km/h 2mph /  3.2km/h 84% 0in /  0.0mm 0 W/m2
20:49 63.9 °F /  17.7 °C 59 °F /  15 °C 29.7in /  1006.8hPa NNE 1mph /  1.6km/h 2mph /  3.2km/h 84.6% 0in /  0.0mm 0 W/m2
20:54 63.9 °F /  17.7 °C 58.8 °F /  14.9 °C 29.7in /  1006.8hPa NNE 1mph /  1.6km/h 2mph /  3.2km/h 84.1% 0in /  0.0mm 0 W/m2
20:59 63.9 °F /  17.7 °C 59 °F /  15 °C 29.7in /  1006.9hPa North 0.2mph /  0.3km/h 2mph /  3.2km/h 84.5% 0in /  0.0mm 0 W/m2
21:04 63.5 °F /  17.5 °C 58.6 °F /  14.8 °C 29.7in /  1006.9hPa NW 0.8mph /  1.3km/h 2mph /  3.2km/h 84% 0in /  0.0mm 0 W/m2
21:09 63.3 °F /  17.4 °C 58.6 °F /  14.8 °C 29.7in /  1006.8hPa NW 1mph /  1.6km/h 2mph /  3.2km/h 84.7% 0in /  0.0mm 0 W/m2
21:14 63 °F /  17.2 °C 58.5 °F /  14.7 °C 29.7in /  1006.8hPa NNW 1mph /  1.6km/h 3mph /  4.8km/h 85% 0in /  0.0mm 0 W/m2
21:19 63 °F /  17.2 °C 58.1 °F /  14.5 °C 29.7in /  1006.9hPa East 1mph /  1.6km/h 4mph /  6.4km/h 84.5% 0in /  0.0mm 0 W/m2
21:24 62.8 °F /  17.1 °C 57.7 °F /  14.3 °C 29.7in /  1007.0hPa SE 1mph /  1.6km/h 4mph /  6.4km/h 83.3% 0in /  0.0mm 0 W/m2
21:29 62.6 °F /  17 °C 56.1 °F /  13.4 °C 29.7in /  1006.9hPa SSE 1mph /  1.6km/h 5mph /  8km/h 79.5% 0in /  0.0mm 0 W/m2
21:34 62.6 °F /  17 °C 55 °F /  12.8 °C 29.7in /  1007.0hPa SE 1mph /  1.6km/h 5mph /  8km/h 76.3% 0in /  0.0mm 0 W/m2
21:39 62.8 °F /  17.1 °C 54.5 °F /  12.5 °C 29.7in /  1007.1hPa ESE 0.8mph /  1.3km/h 5mph /  8km/h 74.7% 0in /  0.0mm 0 W/m2
21:44 62.4 °F /  16.9 °C 54.9 °F /  12.7 °C 29.7in /  1007.1hPa Calm   2mph /  3.2km/h 76.3% 0in /  0.0mm 0 W/m2
21:49 61.9 °F /  16.6 °C 55.6 °F /  13.1 °C 29.8in /  1007.4hPa ESE 0.6mph /  1km/h 4mph /  6.4km/h 79.8% 0in /  0.0mm 0 W/m2
21:54 61.3 °F /  16.3 °C 55.9 °F /  13.3 °C 29.8in /  1007.4hPa NNE 2mph /  3.2km/h 5mph /  8km/h 82.6% 0in /  0.0mm 0 W/m2
21:59 61.2 °F /  16.2 °C 56.5 °F /  13.6 °C 29.8in /  1007.4hPa NW 3mph /  4.8km/h 5mph /  8km/h 84.4% 0in /  0.0mm 0 W/m2
22:04 61.2 °F /  16.2 °C 56.8 °F /  13.8 °C 29.8in /  1007.5hPa NW 2.4mph /  3.9km/h 5mph /  8km/h 85.4% 0in /  0.0mm 0 W/m2
22:09 61 °F /  16.1 °C 56.8 °F /  13.8 °C 29.8in /  1007.5hPa WNW 1.2mph /  1.9km/h 4mph /  6.4km/h 86.2% 0in /  0.0mm 0 W/m2
22:14 61 °F /  16.1 °C 57 °F /  13.9 °C 29.8in /  1007.5hPa WNW 0.6mph /  1km/h 3mph /  4.8km/h 86.7% 0in /  0.0mm 0 W/m2
22:19 60.8 °F /  16 °C 56.8 °F /  13.8 °C 29.8in /  1007.6hPa Calm   2mph /  3.2km/h 87.2% 0in /  0.0mm 0 W/m2
22:24 60.3 °F /  15.7 °C 56.7 °F /  13.7 °C 29.8in /  1007.6hPa Calm   2mph /  3.2km/h 87.8% 0in /  0.0mm 0 W/m2
22:29 59.7 °F /  15.4 °C 56.3 °F /  13.5 °C 29.8in /  1007.6hPa Calm   2mph /  3.2km/h 88.5% 0in /  0.0mm 0 W/m2
22:34 59.7 °F /  15.4 °C 56.5 °F /  13.6 °C 29.8in /  1007.7hPa Calm   2mph /  3.2km/h 89% 0in /  0.0mm 0 W/m2
22:39 59.7 °F /  15.4 °C 56.7 °F /  13.7 °C 29.8in /  1007.8hPa Calm   2mph /  3.2km/h 89% 0in /  0.0mm 0 W/m2
22:44 59.7 °F /  15.4 °C 56.7 °F /  13.7 °C 29.8in /  1008.0hPa Calm   1mph /  1.6km/h 89% 0in /  0.0mm 0 W/m2
22:49 59.5 °F /  15.3 °C 56.3 °F /  13.5 °C 29.8in /  1008.0hPa Calm   1mph /  1.6km/h 89% 0in /  0.0mm 0 W/m2
22:54 59.4 °F /  15.2 °C 55.9 °F /  13.3 °C 29.8in /  1008.1hPa Calm   2mph /  3.2km/h 88.5% 0in /  0.0mm 0 W/m2
22:59 59.5 °F /  15.3 °C 55.9 °F /  13.3 °C 29.8in /  1008.2hPa Calm   2mph /  3.2km/h 88% 0in /  0.0mm 0 W/m2
23:04 59.5 °F /  15.3 °C 55.9 °F /  13.3 °C 29.8in /  1008.2hPa Calm   2mph /  3.2km/h 88% 0in /  0.0mm 0 W/m2
23:09 59 °F /  15 °C 55.9 °F /  13.3 °C 29.8in /  1008.3hPa Calm   1mph /  1.6km/h 89.4% 0in /  0.0mm 0 W/m2
23:14 58.6 °F /  14.8 °C 55.9 °F /  13.3 °C 29.8in /  1008.3hPa Calm   1mph /  1.6km/h 90.6% 0in /  0.0mm 0 W/m2
23:19 58.6 °F /  14.8 °C 55.9 °F /  13.3 °C 29.8in /  1008.3hPa Calm   1mph /  1.6km/h 91% 0in /  0.0mm 0 W/m2
23:24 58.6 °F /  14.8 °C 56.1 °F /  13.4 °C 29.8in /  1008.4hPa Calm   2mph /  3.2km/h 91.2% 0in /  0.0mm 0 W/m2
23:29 58.3 °F /  14.6 °C 55.6 °F /  13.1 °C 29.8in /  1008.3hPa NW 0.6mph /  1km/h 2mph /  3.2km/h 91% 0in /  0.0mm 0 W/m2
23:34 58.1 °F /  14.5 °C 55.6 °F /  13.1 °C 29.8in /  1008.4hPa NW 1mph /  1.6km/h 2mph /  3.2km/h 91% 0in /  0.0mm 0 W/m2
23:39 58.3 °F /  14.6 °C 55.6 °F /  13.1 °C 29.8in /  1008.4hPa NW 0.4mph /  0.6km/h 2mph /  3.2km/h 91% 0in /  0.0mm 0 W/m2
23:44 58.1 °F /  14.5 °C 55.2 °F /  12.9 °C 29.8in /  1008.4hPa NW 0.2mph /  0.3km/h 2mph /  3.2km/h 90.4% 0in /  0.0mm 0 W/m2
23:49 58.1 °F /  14.5 °C 55.2 °F /  12.9 °C 29.8in /  1008.4hPa NW 1mph /  1.6km/h 2mph /  3.2km/h 90% 0in /  0.0mm 0 W/m2
23:54 58.1 °F /  14.5 °C 55 °F /  12.8 °C 29.8in /  1008.4hPa NW 1mph /  1.6km/h 2mph /  3.2km/h 89.4% 0in /  0.0mm 0 W/m2
23:59 58.1 °F /  14.5 °C 54.9 °F /  12.7 °C 29.8in /  1008.4hPa NW 1mph /  1.6km/h 2mph /  3.2km/h 89% 0in /  0.0mm 0 W/m2
Compliments of Weather Underground - 1.5 mb

Latitude S 35° 13' 00" Longitude E 149° 01' 22" Elevation 577 m
Page updated 30/11/2020 10:50:03 PM.
Powered by Cumulus MX v3.2.0 (3056)